sensor_id;sensor_type;location;lat;lon;timestamp;P1;durP1;ratioP1;P2;durP2;ratioP2
12024;SDS011;6073;53.230;10.444;2023-12-14T00:00:12;6.85;;;3.15;;
12024;SDS011;6073;53.230;10.444;2023-12-14T00:02:39;5.75;;;3.08;;
12024;SDS011;6073;53.230;10.444;2023-12-14T00:05:04;4.90;;;3.20;;
12024;SDS011;6073;53.230;10.444;2023-12-14T00:07:30;5.72;;;3.58;;
12024;SDS011;6073;53.230;10.444;2023-12-14T00:09:55;6.93;;;3.80;;
12024;SDS011;6073;53.230;10.444;2023-12-14T00:12:21;6.32;;;3.10;;
12024;SDS011;6073;53.230;10.444;2023-12-14T00:14:47;6.47;;;3.45;;
12024;SDS011;6073;53.230;10.444;2023-12-14T00:17:12;6.35;;;3.50;;
12024;SDS011;6073;53.230;10.444;2023-12-14T00:19:38;5.78;;;3.53;;
12024;SDS011;6073;53.230;10.444;2023-12-14T00:22:03;6.43;;;3.58;;
12024;SDS011;6073;53.230;10.444;2023-12-14T00:24:29;6.82;;;3.92;;
12024;SDS011;6073;53.230;10.444;2023-12-14T00:26:54;4.32;;;3.58;;
12024;SDS011;6073;53.230;10.444;2023-12-14T00:29:20;5.43;;;3.50;;
12024;SDS011;6073;53.230;10.444;2023-12-14T00:31:45;6.72;;;3.45;;
12024;SDS011;6073;53.230;10.444;2023-12-14T00:34:11;6.07;;;3.55;;
12024;SDS011;6073;53.230;10.444;2023-12-14T00:36:36;5.53;;;3.47;;
12024;SDS011;6073;53.230;10.444;2023-12-14T00:39:02;5.25;;;3.33;;
12024;SDS011;6073;53.230;10.444;2023-12-14T00:41:27;7.13;;;4.43;;
12024;SDS011;6073;53.230;10.444;2023-12-14T00:43:53;7.10;;;4.57;;
12024;SDS011;6073;53.230;10.444;2023-12-14T00:46:18;6.70;;;4.10;;
12024;SDS011;6073;53.230;10.444;2023-12-14T00:48:44;6.32;;;3.72;;
12024;SDS011;6073;53.230;10.444;2023-12-14T00:51:10;6.38;;;4.43;;
12024;SDS011;6073;53.230;10.444;2023-12-14T00:53:35;8.98;;;4.00;;
12024;SDS011;6073;53.230;10.444;2023-12-14T00:56:01;5.57;;;3.75;;
12024;SDS011;6073;53.230;10.444;2023-12-14T00:58:26;7.55;;;3.85;;
12024;SDS011;6073;53.230;10.444;2023-12-14T01:00:52;6.20;;;3.78;;
12024;SDS011;6073;53.230;10.444;2023-12-14T01:03:19;7.13;;;3.78;;
12024;SDS011;6073;53.230;10.444;2023-12-14T01:05:45;7.15;;;3.78;;
12024;SDS011;6073;53.230;10.444;2023-12-14T01:08:11;4.22;;;3.42;;
12024;SDS011;6073;53.230;10.444;2023-12-14T01:10:36;4.93;;;3.30;;
12024;SDS011;6073;53.230;10.444;2023-12-14T01:13:02;5.00;;;3.58;;
12024;SDS011;6073;53.230;10.444;2023-12-14T01:15:27;7.22;;;3.83;;
12024;SDS011;6073;53.230;10.444;2023-12-14T01:17:53;6.88;;;3.83;;
12024;SDS011;6073;53.230;10.444;2023-12-14T01:20:19;5.78;;;3.90;;
12024;SDS011;6073;53.230;10.444;2023-12-14T01:22:45;7.57;;;3.60;;
12024;SDS011;6073;53.230;10.444;2023-12-14T01:25:10;7.70;;;3.85;;
12024;SDS011;6073;53.230;10.444;2023-12-14T01:27:36;5.95;;;3.28;;
12024;SDS011;6073;53.230;10.444;2023-12-14T01:30:01;7.70;;;3.75;;
12024;SDS011;6073;53.230;10.444;2023-12-14T01:32:27;6.68;;;3.63;;
12024;SDS011;6073;53.230;10.444;2023-12-14T01:34:52;4.72;;;3.38;;
12024;SDS011;6073;53.230;10.444;2023-12-14T01:37:18;4.47;;;3.45;;
12024;SDS011;6073;53.230;10.444;2023-12-14T01:39:43;4.90;;;3.63;;
12024;SDS011;6073;53.230;10.444;2023-12-14T01:42:09;5.75;;;3.78;;
12024;SDS011;6073;53.230;10.444;2023-12-14T01:44:34;5.82;;;3.50;;
12024;SDS011;6073;53.230;10.444;2023-12-14T01:47:00;6.28;;;3.65;;
12024;SDS011;6073;53.230;10.444;2023-12-14T01:49:25;5.95;;;3.50;;
12024;SDS011;6073;53.230;10.444;2023-12-14T01:51:51;4.38;;;3.05;;
12024;SDS011;6073;53.230;10.444;2023-12-14T01:54:16;5.55;;;3.35;;
12024;SDS011;6073;53.230;10.444;2023-12-14T01:56:42;4.55;;;3.03;;
12024;SDS011;6073;53.230;10.444;2023-12-14T01:59:07;4.72;;;3.40;;
12024;SDS011;6073;53.230;10.444;2023-12-14T02:01:36;5.75;;;3.08;;
12024;SDS011;6073;53.230;10.444;2023-12-14T02:04:06;4.82;;;3.08;;
12024;SDS011;6073;53.230;10.444;2023-12-14T02:06:32;6.00;;;3.65;;
12024;SDS011;6073;53.230;10.444;2023-12-14T02:08:58;4.93;;;3.28;;
12024;SDS011;6073;53.230;10.444;2023-12-14T02:11:23;7.30;;;3.05;;
12024;SDS011;6073;53.230;10.444;2023-12-14T02:13:49;4.43;;;3.00;;
12024;SDS011;6073;53.230;10.444;2023-12-14T02:16:14;4.63;;;2.95;;
12024;SDS011;6073;53.230;10.444;2023-12-14T02:18:46;6.43;;;2.92;;
12024;SDS011;6073;53.230;10.444;2023-12-14T02:21:11;4.88;;;3.35;;
12024;SDS011;6073;53.230;10.444;2023-12-14T02:23:46;6.75;;;3.50;;
12024;SDS011;6073;53.230;10.444;2023-12-14T02:26:12;7.30;;;3.50;;
12024;SDS011;6073;53.230;10.444;2023-12-14T02:28:38;5.13;;;2.75;;
12024;SDS011;6073;53.230;10.444;2023-12-14T02:31:03;4.75;;;3.00;;
12024;SDS011;6073;53.230;10.444;2023-12-14T02:33:29;8.32;;;3.53;;
12024;SDS011;6073;53.230;10.444;2023-12-14T02:35:54;7.45;;;3.42;;
12024;SDS011;6073;53.230;10.444;2023-12-14T02:38:20;7.57;;;3.05;;
12024;SDS011;6073;53.230;10.444;2023-12-14T02:40:46;5.78;;;3.58;;
12024;SDS011;6073;53.230;10.444;2023-12-14T02:43:12;6.90;;;3.10;;
12024;SDS011;6073;53.230;10.444;2023-12-14T02:45:37;4.03;;;2.70;;
12024;SDS011;6073;53.230;10.444;2023-12-14T02:48:03;3.90;;;2.83;;
12024;SDS011;6073;53.230;10.444;2023-12-14T02:50:29;3.40;;;2.42;;
12024;SDS011;6073;53.230;10.444;2023-12-14T02:52:55;4.38;;;2.60;;
12024;SDS011;6073;53.230;10.444;2023-12-14T02:55:20;4.03;;;2.30;;
12024;SDS011;6073;53.230;10.444;2023-12-14T02:57:46;4.53;;;2.30;;
12024;SDS011;6073;53.230;10.444;2023-12-14T03:00:12;4.80;;;3.38;;
12024;SDS011;6073;53.230;10.444;2023-12-14T03:02:38;1.73;;;1.58;;
12024;SDS011;6073;53.230;10.444;2023-12-14T03:05:03;3.55;;;2.13;;
12024;SDS011;6073;53.230;10.444;2023-12-14T03:07:29;2.13;;;1.70;;
12024;SDS011;6073;53.230;10.444;2023-12-14T03:09:55;2.65;;;1.90;;
12024;SDS011;6073;53.230;10.444;2023-12-14T03:12:20;3.13;;;2.10;;
12024;SDS011;6073;53.230;10.444;2023-12-14T03:14:46;1.73;;;1.45;;
12024;SDS011;6073;53.230;10.444;2023-12-14T03:17:11;3.88;;;2.10;;
12024;SDS011;6073;53.230;10.444;2023-12-14T03:19:40;3.50;;;1.83;;
12024;SDS011;6073;53.230;10.444;2023-12-14T03:22:06;2.83;;;1.70;;
12024;SDS011;6073;53.230;10.444;2023-12-14T03:24:32;2.85;;;1.90;;
12024;SDS011;6073;53.230;10.444;2023-12-14T03:26:58;4.38;;;2.10;;
12024;SDS011;6073;53.230;10.444;2023-12-14T03:29:23;3.92;;;2.42;;
12024;SDS011;6073;53.230;10.444;2023-12-14T03:31:49;2.13;;;1.83;;
12024;SDS011;6073;53.230;10.444;2023-12-14T03:34:14;3.15;;;2.05;;
12024;SDS011;6073;53.230;10.444;2023-12-14T03:36:40;3.63;;;2.22;;
12024;SDS011;6073;53.230;10.444;2023-12-14T03:39:05;2.55;;;2.10;;
12024;SDS011;6073;53.230;10.444;2023-12-14T03:41:31;4.00;;;2.00;;
12024;SDS011;6073;53.230;10.444;2023-12-14T03:43:57;2.83;;;2.20;;
12024;SDS011;6073;53.230;10.444;2023-12-14T03:46:23;2.67;;;1.65;;
12024;SDS011;6073;53.230;10.444;2023-12-14T03:48:48;2.70;;;2.03;;
12024;SDS011;6073;53.230;10.444;2023-12-14T03:51:17;2.28;;;1.80;;
12024;SDS011;6073;53.230;10.444;2023-12-14T03:53:45;2.35;;;1.80;;
12024;SDS011;6073;53.230;10.444;2023-12-14T03:56:10;2.78;;;2.03;;
12024;SDS011;6073;53.230;10.444;2023-12-14T03:58:36;3.97;;;2.08;;
12024;SDS011;6073;53.230;10.444;2023-12-14T04:01:02;1.77;;;1.60;;
12024;SDS011;6073;53.230;10.444;2023-12-14T04:03:27;3.47;;;1.95;;
12024;SDS011;6073;53.230;10.444;2023-12-14T04:05:53;2.78;;;1.85;;
12024;SDS011;6073;53.230;10.444;2023-12-14T04:08:18;2.38;;;1.90;;
12024;SDS011;6073;53.230;10.444;2023-12-14T04:10:44;2.80;;;2.03;;
12024;SDS011;6073;53.230;10.444;2023-12-14T04:13:09;3.15;;;2.10;;
12024;SDS011;6073;53.230;10.444;2023-12-14T04:15:35;3.45;;;2.08;;
12024;SDS011;6073;53.230;10.444;2023-12-14T04:18:00;3.75;;;2.20;;
12024;SDS011;6073;53.230;10.444;2023-12-14T04:20:26;3.35;;;2.00;;
12024;SDS011;6073;53.230;10.444;2023-12-14T04:22:51;3.15;;;2.20;;
12024;SDS011;6073;53.230;10.444;2023-12-14T04:25:17;2.90;;;1.95;;
12024;SDS011;6073;53.230;10.444;2023-12-14T04:27:42;3.00;;;2.00;;
12024;SDS011;6073;53.230;10.444;2023-12-14T04:30:08;2.97;;;2.00;;
12024;SDS011;6073;53.230;10.444;2023-12-14T04:32:36;2.70;;;2.20;;
12024;SDS011;6073;53.230;10.444;2023-12-14T04:35:02;3.78;;;2.47;;
12024;SDS011;6073;53.230;10.444;2023-12-14T04:37:27;3.60;;;2.33;;
12024;SDS011;6073;53.230;10.444;2023-12-14T04:39:55;3.08;;;2.35;;
12024;SDS011;6073;53.230;10.444;2023-12-14T04:42:20;5.03;;;2.58;;
12024;SDS011;6073;53.230;10.444;2023-12-14T04:44:46;4.43;;;2.67;;
12024;SDS011;6073;53.230;10.444;2023-12-14T04:47:11;3.65;;;2.45;;
12024;SDS011;6073;53.230;10.444;2023-12-14T04:49:37;5.45;;;2.70;;
12024;SDS011;6073;53.230;10.444;2023-12-14T04:52:02;4.45;;;2.90;;
12024;SDS011;6073;53.230;10.444;2023-12-14T04:54:28;5.43;;;2.90;;
12024;SDS011;6073;53.230;10.444;2023-12-14T04:56:54;4.32;;;2.80;;
12024;SDS011;6073;53.230;10.444;2023-12-14T04:59:19;6.55;;;2.65;;
12024;SDS011;6073;53.230;10.444;2023-12-14T05:01:45;4.57;;;2.63;;
12024;SDS011;6073;53.230;10.444;2023-12-14T05:04:10;5.05;;;2.85;;
12024;SDS011;6073;53.230;10.444;2023-12-14T05:06:36;4.20;;;2.60;;
12024;SDS011;6073;53.230;10.444;2023-12-14T05:09:03;4.78;;;3.10;;
12024;SDS011;6073;53.230;10.444;2023-12-14T05:11:30;4.40;;;2.75;;
12024;SDS011;6073;53.230;10.444;2023-12-14T05:13:56;4.80;;;2.85;;
12024;SDS011;6073;53.230;10.444;2023-12-14T05:16:22;4.53;;;2.90;;
12024;SDS011;6073;53.230;10.444;2023-12-14T05:18:52;6.85;;;3.53;;
12024;SDS011;6073;53.230;10.444;2023-12-14T05:21:21;5.20;;;3.10;;
12024;SDS011;6073;53.230;10.444;2023-12-14T05:23:47;4.38;;;3.08;;
12024;SDS011;6073;53.230;10.444;2023-12-14T05:26:13;4.03;;;2.70;;
12024;SDS011;6073;53.230;10.444;2023-12-14T05:28:38;4.78;;;2.90;;
12024;SDS011;6073;53.230;10.444;2023-12-14T05:31:04;4.32;;;2.75;;
12024;SDS011;6073;53.230;10.444;2023-12-14T05:33:29;6.55;;;3.80;;
12024;SDS011;6073;53.230;10.444;2023-12-14T05:35:56;7.38;;;3.42;;
12024;SDS011;6073;53.230;10.444;2023-12-14T05:38:22;7.05;;;3.03;;
12024;SDS011;6073;53.230;10.444;2023-12-14T05:40:47;5.05;;;2.95;;
12024;SDS011;6073;53.230;10.444;2023-12-14T05:43:13;4.78;;;2.88;;
12024;SDS011;6073;53.230;10.444;2023-12-14T05:45:38;6.72;;;3.58;;
12024;SDS011;6073;53.230;10.444;2023-12-14T05:48:04;5.72;;;3.35;;
12024;SDS011;6073;53.230;10.444;2023-12-14T05:50:30;8.82;;;4.10;;
12024;SDS011;6073;53.230;10.444;2023-12-14T05:52:56;5.68;;;3.33;;
12024;SDS011;6073;53.230;10.444;2023-12-14T05:55:21;7.97;;;4.40;;
12024;SDS011;6073;53.230;10.444;2023-12-14T05:57:48;6.30;;;3.50;;
12024;SDS011;6073;53.230;10.444;2023-12-14T06:00:13;6.90;;;3.92;;
12024;SDS011;6073;53.230;10.444;2023-12-14T06:02:39;7.60;;;4.00;;
12024;SDS011;6073;53.230;10.444;2023-12-14T06:05:06;6.15;;;3.88;;
12024;SDS011;6073;53.230;10.444;2023-12-14T06:07:32;9.35;;;4.50;;
12024;SDS011;6073;53.230;10.444;2023-12-14T06:09:58;5.25;;;3.60;;
12024;SDS011;6073;53.230;10.444;2023-12-14T06:12:24;5.75;;;3.72;;
12024;SDS011;6073;53.230;10.444;2023-12-14T06:14:49;4.72;;;3.15;;
12024;SDS011;6073;53.230;10.444;2023-12-14T06:17:15;6.10;;;3.58;;
12024;SDS011;6073;53.230;10.444;2023-12-14T06:19:41;6.25;;;3.58;;
12024;SDS011;6073;53.230;10.444;2023-12-14T06:22:07;5.93;;;4.20;;
12024;SDS011;6073;53.230;10.444;2023-12-14T06:24:32;7.70;;;3.83;;
12024;SDS011;6073;53.230;10.444;2023-12-14T06:26:58;6.10;;;3.80;;
12024;SDS011;6073;53.230;10.444;2023-12-14T06:29:24;7.43;;;4.25;;
12024;SDS011;6073;53.230;10.444;2023-12-14T06:31:49;6.80;;;3.92;;
12024;SDS011;6073;53.230;10.444;2023-12-14T06:34:16;7.28;;;4.20;;
12024;SDS011;6073;53.230;10.444;2023-12-14T06:36:44;6.70;;;4.00;;
12024;SDS011;6073;53.230;10.444;2023-12-14T06:39:10;6.10;;;3.95;;
12024;SDS011;6073;53.230;10.444;2023-12-14T06:41:36;7.90;;;4.50;;
12024;SDS011;6073;53.230;10.444;2023-12-14T06:44:02;10.98;;;4.75;;
12024;SDS011;6073;53.230;10.444;2023-12-14T06:46:28;8.20;;;4.05;;
12024;SDS011;6073;53.230;10.444;2023-12-14T06:48:54;7.57;;;4.20;;
12024;SDS011;6073;53.230;10.444;2023-12-14T06:51:20;9.85;;;4.22;;
12024;SDS011;6073;53.230;10.444;2023-12-14T06:53:46;6.28;;;3.88;;
12024;SDS011;6073;53.230;10.444;2023-12-14T06:56:13;6.40;;;3.85;;
12024;SDS011;6073;53.230;10.444;2023-12-14T06:58:39;7.63;;;4.50;;
12024;SDS011;6073;53.230;10.444;2023-12-14T07:01:06;7.68;;;4.65;;
12024;SDS011;6073;53.230;10.444;2023-12-14T07:03:32;7.95;;;4.22;;
12024;SDS011;6073;53.230;10.444;2023-12-14T07:05:58;7.43;;;4.68;;
12024;SDS011;6073;53.230;10.444;2023-12-14T07:08:23;5.38;;;4.00;;
12024;SDS011;6073;53.230;10.444;2023-12-14T07:10:49;6.32;;;4.35;;
12024;SDS011;6073;53.230;10.444;2023-12-14T07:13:15;6.78;;;3.55;;
12024;SDS011;6073;53.230;10.444;2023-12-14T07:15:40;7.03;;;5.18;;
12024;SDS011;6073;53.230;10.444;2023-12-14T07:18:06;6.13;;;3.97;;
12024;SDS011;6073;53.230;10.444;2023-12-14T07:20:32;8.57;;;4.05;;
12024;SDS011;6073;53.230;10.444;2023-12-14T07:22:57;9.60;;;4.93;;
12024;SDS011;6073;53.230;10.444;2023-12-14T07:25:23;7.35;;;4.30;;
12024;SDS011;6073;53.230;10.444;2023-12-14T07:27:48;7.07;;;4.30;;
12024;SDS011;6073;53.230;10.444;2023-12-14T07:30:14;7.72;;;4.30;;
12024;SDS011;6073;53.230;10.444;2023-12-14T07:32:40;9.25;;;4.47;;
12024;SDS011;6073;53.230;10.444;2023-12-14T07:35:05;7.05;;;4.18;;
12024;SDS011;6073;53.230;10.444;2023-12-14T07:37:31;8.65;;;4.47;;
12024;SDS011;6073;53.230;10.444;2023-12-14T07:39:57;6.63;;;4.07;;
12024;SDS011;6073;53.230;10.444;2023-12-14T07:42:25;8.52;;;4.47;;
12024;SDS011;6073;53.230;10.444;2023-12-14T07:44:51;6.90;;;4.45;;
12024;SDS011;6073;53.230;10.444;2023-12-14T07:47:16;8.07;;;4.28;;
12024;SDS011;6073;53.230;10.444;2023-12-14T07:49:42;9.18;;;4.55;;
12024;SDS011;6073;53.230;10.444;2023-12-14T07:52:08;7.25;;;4.57;;
12024;SDS011;6073;53.230;10.444;2023-12-14T07:54:34;8.48;;;4.10;;
12024;SDS011;6073;53.230;10.444;2023-12-14T07:57:00;9.77;;;4.35;;
12024;SDS011;6073;53.230;10.444;2023-12-14T07:59:26;7.03;;;4.15;;
12024;SDS011;6073;53.230;10.444;2023-12-14T08:01:51;8.73;;;4.75;;
12024;SDS011;6073;53.230;10.444;2023-12-14T08:04:17;7.88;;;4.22;;
12024;SDS011;6073;53.230;10.444;2023-12-14T08:06:42;8.95;;;5.50;;
12024;SDS011;6073;53.230;10.444;2023-12-14T08:09:08;6.68;;;4.22;;
12024;SDS011;6073;53.230;10.444;2023-12-14T08:11:34;7.68;;;4.82;;
12024;SDS011;6073;53.230;10.444;2023-12-14T08:13:59;10.25;;;6.03;;
12024;SDS011;6073;53.230;10.444;2023-12-14T08:16:25;8.15;;;4.82;;
12024;SDS011;6073;53.230;10.444;2023-12-14T08:18:51;8.07;;;4.43;;
12024;SDS011;6073;53.230;10.444;2023-12-14T08:21:17;17.20;;;10.25;;
12024;SDS011;6073;53.230;10.444;2023-12-14T08:23:43;7.80;;;5.05;;
12024;SDS011;6073;53.230;10.444;2023-12-14T08:26:09;8.82;;;5.70;;
12024;SDS011;6073;53.230;10.444;2023-12-14T08:28:36;7.53;;;5.47;;
12024;SDS011;6073;53.230;10.444;2023-12-14T08:31:02;11.23;;;6.47;;
12024;SDS011;6073;53.230;10.444;2023-12-14T08:33:29;10.38;;;5.20;;
12024;SDS011;6073;53.230;10.444;2023-12-14T08:35:55;9.43;;;4.13;;
12024;SDS011;6073;53.230;10.444;2023-12-14T08:38:21;6.90;;;4.25;;
12024;SDS011;6073;53.230;10.444;2023-12-14T08:40:46;7.82;;;4.72;;
12024;SDS011;6073;53.230;10.444;2023-12-14T08:43:12;7.53;;;4.57;;
12024;SDS011;6073;53.230;10.444;2023-12-14T08:45:37;7.60;;;4.43;;
12024;SDS011;6073;53.230;10.444;2023-12-14T08:48:03;6.40;;;4.60;;
12024;SDS011;6073;53.230;10.444;2023-12-14T08:50:29;9.82;;;4.93;;
12024;SDS011;6073;53.230;10.444;2023-12-14T08:52:55;8.38;;;4.78;;
12024;SDS011;6073;53.230;10.444;2023-12-14T08:55:23;8.43;;;4.75;;
12024;SDS011;6073;53.230;10.444;2023-12-14T08:57:49;7.45;;;4.85;;
12024;SDS011;6073;53.230;10.444;2023-12-14T09:00:15;9.07;;;4.65;;
12024;SDS011;6073;53.230;10.444;2023-12-14T09:02:42;8.95;;;5.43;;
12024;SDS011;6073;53.230;10.444;2023-12-14T09:05:09;9.02;;;5.75;;
12024;SDS011;6073;53.230;10.444;2023-12-14T09:07:34;9.60;;;5.47;;
12024;SDS011;6073;53.230;10.444;2023-12-14T09:10:00;9.70;;;4.82;;
12024;SDS011;6073;53.230;10.444;2023-12-14T09:12:25;9.48;;;5.65;;
12024;SDS011;6073;53.230;10.444;2023-12-14T09:14:51;9.25;;;5.28;;
12024;SDS011;6073;53.230;10.444;2023-12-14T09:17:16;10.77;;;4.88;;
12024;SDS011;6073;53.230;10.444;2023-12-14T09:19:43;8.05;;;4.57;;
12024;SDS011;6073;53.230;10.444;2023-12-14T09:22:08;6.40;;;4.53;;
12024;SDS011;6073;53.230;10.444;2023-12-14T09:24:34;9.80;;;4.88;;
12024;SDS011;6073;53.230;10.444;2023-12-14T09:27:00;8.60;;;4.47;;
12024;SDS011;6073;53.230;10.444;2023-12-14T09:29:25;11.35;;;4.90;;
12024;SDS011;6073;53.230;10.444;2023-12-14T09:31:51;11.45;;;5.00;;
12024;SDS011;6073;53.230;10.444;2023-12-14T09:34:19;8.23;;;4.82;;
12024;SDS011;6073;53.230;10.444;2023-12-14T09:36:49;9.23;;;4.85;;
12024;SDS011;6073;53.230;10.444;2023-12-14T09:39:15;8.00;;;5.03;;
12024;SDS011;6073;53.230;10.444;2023-12-14T09:41:41;9.38;;;5.00;;
12024;SDS011;6073;53.230;10.444;2023-12-14T09:44:06;8.23;;;5.00;;
12024;SDS011;6073;53.230;10.444;2023-12-14T09:46:33;10.23;;;4.80;;
12024;SDS011;6073;53.230;10.444;2023-12-14T09:49:01;7.95;;;5.03;;
12024;SDS011;6073;53.230;10.444;2023-12-14T09:51:29;9.10;;;5.38;;
12024;SDS011;6073;53.230;10.444;2023-12-14T09:53:55;10.32;;;4.57;;
12024;SDS011;6073;53.230;10.444;2023-12-14T09:56:26;7.15;;;5.05;;
12024;SDS011;6073;53.230;10.444;2023-12-14T09:58:52;9.32;;;5.40;;
12024;SDS011;6073;53.230;10.444;2023-12-14T10:01:22;6.53;;;4.50;;
12024;SDS011;6073;53.230;10.444;2023-12-14T10:03:49;11.88;;;5.55;;
12024;SDS011;6073;53.230;10.444;2023-12-14T10:06:15;9.00;;;5.00;;
12024;SDS011;6073;53.230;10.444;2023-12-14T10:08:42;9.68;;;5.32;;
12024;SDS011;6073;53.230;10.444;2023-12-14T10:11:19;7.00;;;4.95;;
12024;SDS011;6073;53.230;10.444;2023-12-14T10:13:45;8.60;;;5.60;;
12024;SDS011;6073;53.230;10.444;2023-12-14T10:16:10;8.10;;;5.05;;
12024;SDS011;6073;53.230;10.444;2023-12-14T10:18:36;6.13;;;4.15;;
12024;SDS011;6073;53.230;10.444;2023-12-14T10:21:10;6.45;;;4.30;;
12024;SDS011;6073;53.230;10.444;2023-12-14T10:23:36;7.88;;;4.43;;
12024;SDS011;6073;53.230;10.444;2023-12-14T10:26:03;8.88;;;5.28;;
12024;SDS011;6073;53.230;10.444;2023-12-14T10:28:29;9.82;;;4.60;;
12024;SDS011;6073;53.230;10.444;2023-12-14T10:30:55;9.38;;;4.68;;
12024;SDS011;6073;53.230;10.444;2023-12-14T10:33:22;9.48;;;5.72;;
12024;SDS011;6073;53.230;10.444;2023-12-14T10:35:48;9.30;;;5.28;;
12024;SDS011;6073;53.230;10.444;2023-12-14T10:38:14;9.95;;;5.82;;
12024;SDS011;6073;53.230;10.444;2023-12-14T10:40:42;12.00;;;5.45;;
12024;SDS011;6073;53.230;10.444;2023-12-14T10:43:10;8.18;;;5.20;;
12024;SDS011;6073;53.230;10.444;2023-12-14T10:45:36;9.30;;;5.45;;
12024;SDS011;6073;53.230;10.444;2023-12-14T10:48:04;8.18;;;5.05;;
12024;SDS011;6073;53.230;10.444;2023-12-14T10:50:31;7.57;;;5.13;;
12024;SDS011;6073;53.230;10.444;2023-12-14T10:52:57;7.63;;;5.25;;
12024;SDS011;6073;53.230;10.444;2023-12-14T10:55:40;9.32;;;4.38;;
12024;SDS011;6073;53.230;10.444;2023-12-14T10:58:08;9.60;;;5.18;;
12024;SDS011;6073;53.230;10.444;2023-12-14T11:00:35;9.85;;;4.68;;
12024;SDS011;6073;53.230;10.444;2023-12-14T11:03:03;8.15;;;5.03;;
12024;SDS011;6073;53.230;10.444;2023-12-14T11:05:31;8.00;;;4.68;;
12024;SDS011;6073;53.230;10.444;2023-12-14T11:08:04;7.65;;;5.07;;
12024;SDS011;6073;53.230;10.444;2023-12-14T11:10:51;8.32;;;5.32;;
12024;SDS011;6073;53.230;10.444;2023-12-14T11:13:21;8.43;;;5.00;;
12024;SDS011;6073;53.230;10.444;2023-12-14T11:15:47;8.95;;;5.72;;
12024;SDS011;6073;53.230;10.444;2023-12-14T11:25:50;10.90;;;4.70;;
12024;SDS011;6073;53.230;10.444;2023-12-14T11:28:18;8.73;;;4.90;;
12024;SDS011;6073;53.230;10.444;2023-12-14T11:30:44;10.35;;;5.40;;
12024;SDS011;6073;53.230;10.444;2023-12-14T11:33:13;8.43;;;4.75;;
12024;SDS011;6073;53.230;10.444;2023-12-14T11:35:39;7.72;;;4.45;;
12024;SDS011;6073;53.230;10.444;2023-12-14T11:38:05;8.73;;;4.70;;
12024;SDS011;6073;53.230;10.444;2023-12-14T11:40:40;11.25;;;5.05;;
12024;SDS011;6073;53.230;10.444;2023-12-14T11:43:06;8.15;;;4.88;;
12024;SDS011;6073;53.230;10.444;2023-12-14T11:45:39;8.75;;;5.03;;
12024;SDS011;6073;53.230;10.444;2023-12-14T11:48:08;8.57;;;5.03;;
12024;SDS011;6073;53.230;10.444;2023-12-14T11:50:39;8.50;;;5.38;;
12024;SDS011;6073;53.230;10.444;2023-12-14T11:53:06;7.97;;;4.85;;
12024;SDS011;6073;53.230;10.444;2023-12-14T11:55:34;8.00;;;4.10;;
12024;SDS011;6073;53.230;10.444;2023-12-14T11:58:00;5.78;;;4.50;;
12024;SDS011;6073;53.230;10.444;2023-12-14T12:00:26;8.10;;;4.20;;
12024;SDS011;6073;53.230;10.444;2023-12-14T12:05:40;6.93;;;4.30;;
12024;SDS011;6073;53.230;10.444;2023-12-14T12:08:08;10.05;;;4.50;;
12024;SDS011;6073;53.230;10.444;2023-12-14T12:10:34;8.18;;;5.18;;
12024;SDS011;6073;53.230;10.444;2023-12-14T12:13:07;9.52;;;3.95;;
12024;SDS011;6073;53.230;10.444;2023-12-14T12:15:36;11.65;;;4.80;;
12024;SDS011;6073;53.230;10.444;2023-12-14T12:18:06;6.88;;;4.18;;
12024;SDS011;6073;53.230;10.444;2023-12-14T12:20:33;8.30;;;4.55;;
12024;SDS011;6073;53.230;10.444;2023-12-14T12:22:59;6.30;;;3.95;;
12024;SDS011;6073;53.230;10.444;2023-12-14T12:25:25;6.20;;;4.50;;
12024;SDS011;6073;53.230;10.444;2023-12-14T12:27:52;7.47;;;4.13;;
12024;SDS011;6073;53.230;10.444;2023-12-14T12:30:19;8.43;;;4.43;;
12024;SDS011;6073;53.230;10.444;2023-12-14T12:32:44;7.88;;;4.50;;
12024;SDS011;6073;53.230;10.444;2023-12-14T12:35:10;9.02;;;4.35;;
12024;SDS011;6073;53.230;10.444;2023-12-14T12:37:35;7.97;;;4.53;;
12024;SDS011;6073;53.230;10.444;2023-12-14T12:40:01;7.03;;;4.45;;
12024;SDS011;6073;53.230;10.444;2023-12-14T12:42:27;8.50;;;4.85;;
12024;SDS011;6073;53.230;10.444;2023-12-14T12:44:54;6.00;;;3.47;;
12024;SDS011;6073;53.230;10.444;2023-12-14T12:47:19;7.93;;;3.72;;
12024;SDS011;6073;53.230;10.444;2023-12-14T12:49:45;6.05;;;3.38;;
12024;SDS011;6073;53.230;10.444;2023-12-14T12:52:11;6.40;;;3.63;;
12024;SDS011;6073;53.230;10.444;2023-12-14T12:54:36;8.98;;;3.50;;
12024;SDS011;6073;53.230;10.444;2023-12-14T12:57:02;7.75;;;3.63;;
12024;SDS011;6073;53.230;10.444;2023-12-14T12:59:27;4.38;;;3.20;;
12024;SDS011;6073;53.230;10.444;2023-12-14T13:01:53;6.25;;;3.55;;
12024;SDS011;6073;53.230;10.444;2023-12-14T13:04:22;8.70;;;3.35;;
12024;SDS011;6073;53.230;10.444;2023-12-14T13:06:48;4.07;;;3.10;;
12024;SDS011;6073;53.230;10.444;2023-12-14T13:09:17;5.50;;;3.15;;
12024;SDS011;6073;53.230;10.444;2023-12-14T13:11:47;4.30;;;3.20;;
12024;SDS011;6073;53.230;10.444;2023-12-14T13:14:13;5.38;;;3.17;;
12024;SDS011;6073;53.230;10.444;2023-12-14T13:16:40;4.20;;;2.88;;
12024;SDS011;6073;53.230;10.444;2023-12-14T13:19:06;4.88;;;3.03;;
12024;SDS011;6073;53.230;10.444;2023-12-14T13:21:32;4.53;;;3.05;;
12024;SDS011;6073;53.230;10.444;2023-12-14T13:24:01;5.35;;;2.90;;
12024;SDS011;6073;53.230;10.444;2023-12-14T13:26:27;5.30;;;3.10;;
12024;SDS011;6073;53.230;10.444;2023-12-14T13:28:53;5.57;;;2.92;;
12024;SDS011;6073;53.230;10.444;2023-12-14T13:31:20;4.63;;;2.95;;
12024;SDS011;6073;53.230;10.444;2023-12-14T13:33:46;4.45;;;3.10;;
12024;SDS011;6073;53.230;10.444;2023-12-14T13:36:12;7.45;;;3.80;;
12024;SDS011;6073;53.230;10.444;2023-12-14T13:38:39;6.97;;;3.63;;
12024;SDS011;6073;53.230;10.444;2023-12-14T13:41:06;5.00;;;3.63;;
12024;SDS011;6073;53.230;10.444;2023-12-14T13:43:35;6.68;;;3.72;;
12024;SDS011;6073;53.230;10.444;2023-12-14T13:46:00;6.70;;;4.60;;
12024;SDS011;6073;53.230;10.444;2023-12-14T13:48:27;5.13;;;3.75;;
12024;SDS011;6073;53.230;10.444;2023-12-14T13:50:53;6.38;;;3.88;;
12024;SDS011;6073;53.230;10.444;2023-12-14T13:53:20;7.47;;;3.13;;
12024;SDS011;6073;53.230;10.444;2023-12-14T13:55:46;6.60;;;4.03;;
12024;SDS011;6073;53.230;10.444;2023-12-14T13:58:13;6.50;;;4.10;;
12024;SDS011;6073;53.230;10.444;2023-12-14T14:00:40;7.78;;;4.20;;
12024;SDS011;6073;53.230;10.444;2023-12-14T14:03:06;6.22;;;3.75;;
12024;SDS011;6073;53.230;10.444;2023-12-14T14:05:32;6.45;;;3.58;;
12024;SDS011;6073;53.230;10.444;2023-12-14T14:07:58;7.35;;;4.03;;
12024;SDS011;6073;53.230;10.444;2023-12-14T14:10:23;6.28;;;3.72;;
12024;SDS011;6073;53.230;10.444;2023-12-14T14:12:49;6.22;;;3.95;;
12024;SDS011;6073;53.230;10.444;2023-12-14T14:15:16;5.40;;;3.88;;
12024;SDS011;6073;53.230;10.444;2023-12-14T14:17:42;7.72;;;4.75;;
12024;SDS011;6073;53.230;10.444;2023-12-14T14:20:08;10.38;;;4.68;;
12024;SDS011;6073;53.230;10.444;2023-12-14T14:22:35;8.40;;;4.20;;
12024;SDS011;6073;53.230;10.444;2023-12-14T14:25:04;6.63;;;4.35;;
12024;SDS011;6073;53.230;10.444;2023-12-14T14:27:32;9.90;;;4.47;;
12024;SDS011;6073;53.230;10.444;2023-12-14T14:29:58;7.80;;;5.32;;
12024;SDS011;6073;53.230;10.444;2023-12-14T14:32:24;8.65;;;4.15;;
12024;SDS011;6073;53.230;10.444;2023-12-14T14:34:49;5.40;;;4.05;;
12024;SDS011;6073;53.230;10.444;2023-12-14T14:37:15;8.65;;;4.53;;
12024;SDS011;6073;53.230;10.444;2023-12-14T14:39:42;7.13;;;4.18;;
12024;SDS011;6073;53.230;10.444;2023-12-14T14:42:08;6.43;;;4.22;;
12024;SDS011;6073;53.230;10.444;2023-12-14T14:44:34;5.97;;;4.13;;
12024;SDS011;6073;53.230;10.444;2023-12-14T14:47:00;6.38;;;4.00;;
12024;SDS011;6073;53.230;10.444;2023-12-14T14:49:27;9.27;;;4.80;;
12024;SDS011;6073;53.230;10.444;2023-12-14T14:51:52;5.88;;;4.38;;